Time;durP1;ratioP1;P1;durP2;ratioP2;P2;SDS_P1;SDS_P2;PMS_P1;PMS_P2;Temp;Humidity;BMP_temperature;BMP_pressure;BME280_temperature;BME280_humidity;BME280_pressure;Samples;Min_cycle;Max_cycle;Signal;HPM_P1;HPM_P2
2022/05/25 00:00:01;;;;;;;9.48;3.90;;;;;;;10.51;100.00;99882.81;1758082;82;21057;-70
2022/05/25 00:02:31;;;;;;;8.85;4.10;;;;;;;10.52;100.00;99887.22;1753590;82;21113;-70
2022/05/25 00:04:58;;;;;;;4.80;3.47;;;;;;;10.51;100.00;99885.52;1758067;82;21479;-71
2022/05/25 00:07:26;;;;;;;7.83;3.90;;;;;;;10.51;100.00;99888.22;1757593;82;21019;-71
2022/05/25 00:09:54;;;;;;;4.78;3.27;;;;;;;10.50;100.00;99883.33;1757714;82;21101;-70
2022/05/25 00:12:21;;;;;;;8.85;3.87;;;;;;;10.49;100.00;99887.04;1758119;81;21542;-70
2022/05/25 00:14:50;;;;;;;6.67;3.70;;;;;;;10.49;100.00;99890.27;1746730;82;21054;-71
2022/05/25 00:17:17;;;;;;;10.30;4.03;;;;;;;10.48;100.00;99893.97;1717159;83;21002;-69
2022/05/25 00:19:59;;;;;;;8.03;3.65;;;;;;;10.46;100.00;99892.78;1737330;83;21455;-69
2022/05/25 00:22:48;;;;;;;7.08;3.90;;;;;;;10.47;100.00;99892.30;1694014;83;21110;-71
2022/05/25 00:25:19;;;;;;;10.80;4.10;;;;;;;10.43;100.00;99895.34;1709516;83;20987;-71
2022/05/25 00:27:46;;;;;;;6.22;3.80;;;;;;;10.42;100.00;99896.86;1729095;82;20987;-70
2022/05/25 00:30:14;;;;;;;8.00;4.00;;;;;;;10.40;100.00;99899.73;1728916;82;21058;-71
2022/05/25 00:32:42;;;;;;;7.25;3.67;;;;;;;10.40;100.00;99902.95;1729097;83;21061;-70
2022/05/25 00:35:16;;;;;;;9.40;4.40;;;;;;;10.40;100.00;99901.09;1729068;82;21061;-70
2022/05/25 00:37:44;;;;;;;8.28;3.90;;;;;;;10.39;100.00;99897.20;1710710;83;21022;-71
2022/05/25 00:40:27;;;;;;;9.85;4.33;;;;;;;10.36;100.00;99897.57;1728928;82;21503;-71
2022/05/25 00:42:55;;;;;;;6.72;4.03;;;;;;;10.33;100.00;99900.09;1710517;83;21042;-71
2022/05/25 00:45:22;;;;;;;7.10;4.03;;;;;;;10.28;100.00;99901.60;1728770;83;21026;-71
2022/05/25 00:47:51;;;;;;;10.98;4.60;;;;;;;10.22;100.00;99903.98;1710425;83;21074;-71
2022/05/25 00:50:21;;;;;;;8.20;4.22;;;;;;;10.16;100.00;99904.64;1728638;82;21046;-70
2022/05/25 00:52:50;;;;;;;8.80;4.30;;;;;;;10.08;100.00;99906.03;1691301;84;21057;-72
2022/05/25 00:55:28;;;;;;;8.50;4.25;;;;;;;10.00;100.00;99908.21;1709403;83;21018;-70
2022/05/25 00:57:59;;;;;;;7.17;4.12;;;;;;;9.93;100.00;99903.16;1711187;83;21038;-70
2022/05/25 01:00:29;;;;;;;7.65;4.50;;;;;;;9.86;100.00;99903.50;1710792;83;21003;-71
2022/05/25 01:03:02;;;;;;;7.95;4.37;;;;;;;9.80;100.00;99900.14;1710499;83;21038;-70
2022/05/25 01:05:54;;;;;;;9.60;4.17;;;;;;;9.76;100.00;99906.39;1710361;83;21078;-69
2022/05/25 01:08:46;;;;;;;7.90;4.12;;;;;;;9.72;100.00;99912.29;1691493;85;21021;-70
2022/05/25 01:11:27;;;;;;;7.60;4.42;;;;;;;9.65;100.00;99908.06;1708766;83;21034;-70
2022/05/25 01:14:12;;;;;;;11.05;4.17;;;;;;;9.58;100.00;99911.09;1651806;86;21062;-70
2022/05/25 01:17:17;;;;;;;10.05;4.37;;;;;;;9.53;100.00;99902.17;1636383;86;21055;-70
2022/05/25 01:20:09;;;;;;;8.48;4.20;;;;;;;9.50;100.00;99904.68;1613880;86;21059;-68
2022/05/25 01:23:02;;;;;;;8.93;4.05;;;;;;;9.49;100.00;99909.77;1684955;83;21638;-70
2022/05/25 01:25:55;;;;;;;8.55;4.47;;;;;;;9.47;100.00;99902.34;1707495;84;21069;-70
2022/05/25 01:29:04;;;;;;;9.03;4.67;;;;;;;9.46;100.00;99895.75;1708250;84;21594;-70
2022/05/25 01:32:08;;;;;;;12.98;5.50;;;;;;;9.43;100.00;99898.27;1682676;84;21116;-71
2022/05/25 01:34:47;;;;;;;12.25;5.25;;;;;;;9.38;100.00;99899.27;1673886;84;21065;-70
2022/05/25 01:37:48;;;;;;;20.17;8.78;;;;;;;9.33;100.00;99903.48;1647869;87;21714;-70
2022/05/25 01:40:44;;;;;;;19.63;9.50;;;;;;;9.25;100.00;99901.63;1611746;88;21078;-70
2022/05/25 01:43:22;;;;;;;22.82;10.80;;;;;;;9.16;100.00;99904.81;1633172;88;21076;-70
2022/05/25 01:45:53;;;;;;;24.07;11.43;;;;;;;9.08;100.00;99907.00;1610851;88;21078;-70
2022/05/25 01:48:21;;;;;;;25.00;12.00;;;;;;;9.01;100.00;99910.50;1633518;88;21587;-69
2022/05/25 01:50:58;;;;;;;25.20;12.00;;;;;;;8.92;100.00;99911.84;1636725;87;21099;-71
2022/05/25 01:53:29;;;;;;;22.70;11.33;;;;;;;8.86;100.00;99914.34;1607863;89;21088;-70
2022/05/25 01:55:59;;;;;;;22.83;11.40;;;;;;;8.79;100.00;99919.52;1584964;90;21040;-69
2022/05/25 01:58:26;;;;;;;23.83;12.60;;;;;;;8.73;100.00;99920.19;1585108;90;21065;-70
2022/05/25 02:00:59;;;;;;;23.93;12.77;;;;;;;8.69;100.00;99927.76;1564577;90;21206;-70
2022/05/25 02:07:04;;;;;;;27.50;12.67;;;;;;;8.58;100.00;99929.88;1586414;90;21105;-70
2022/05/25 02:10:07;;;;;;;25.30;12.57;;;;;;;8.53;100.00;99919.57;1579951;90;21077;-69
2022/05/25 02:13:09;;;;;;;30.10;14.20;;;;;;;8.47;100.00;99930.50;1557518;92;21620;-70
2022/05/25 02:15:53;;;;;;;27.17;14.13;;;;;;;8.44;100.00;99937.55;1526612;92;21089;-69
2022/05/25 02:18:56;;;;;;;24.63;12.93;;;;;;;8.39;100.00;99944.39;1533996;92;21608;-70
2022/05/25 02:21:40;;;;;;;25.68;14.50;;;;;;;8.34;100.00;99944.38;1534336;93;21135;-71
2022/05/25 02:24:18;;;;;;;26.50;14.23;;;;;;;8.26;100.00;99935.39;1524691;94;21581;-70
2022/05/25 02:26:53;;;;;;;23.63;12.73;;;;;;;8.18;100.00;99933.50;1524470;94;21100;-70
2022/05/25 02:29:33;;;;;;;25.60;14.60;;;;;;;8.13;100.00;99932.63;1498027;96;21633;-71
2022/05/25 02:32:11;;;;;;;24.17;13.50;;;;;;;8.06;100.00;99928.03;1471441;97;21189;-70
2022/05/25 02:34:40;;;;;;;28.23;14.17;;;;;;;8.02;100.00;99929.33;1471134;96;21193;-69
2022/05/25 02:37:07;;;;;;;26.43;14.53;;;;;;;7.99;100.00;99934.54;1499720;96;21292;-69
2022/05/25 02:39:34;;;;;;;26.30;14.00;;;;;;;7.98;100.00;99938.22;1478135;96;21153;-69
2022/05/25 02:42:02;;;;;;;21.93;12.37;;;;;;;7.96;100.00;99933.50;1496059;96;21144;-70
2022/05/25 02:44:29;;;;;;;24.43;12.00;;;;;;;7.96;100.00;99938.89;1496047;96;21598;-70
2022/05/25 02:46:56;;;;;;;23.20;11.87;;;;;;;8.00;100.00;99934.87;1496411;96;21188;-70
2022/05/25 02:49:23;;;;;;;20.07;11.50;;;;;;;8.05;100.00;99937.94;1498644;94;21120;-70
2022/05/25 02:51:50;;;;;;;22.43;12.30;;;;;;;8.12;100.00;99930.91;1500247;94;21098;-70
2022/05/25 02:54:22;;;;;;;32.40;17.07;;;;;;;8.21;100.00;99937.72;1490137;95;21152;-70
2022/05/25 02:56:46;;;;;;;31.27;16.70;;;;;;;8.29;100.00;99936.44;1505826;95;21124;-70
2022/05/25 02:59:13;;;;;;;34.30;16.17;;;;;;;8.38;100.00;99935.47;1508730;94;21554;-70
2022/05/25 03:01:40;;;;;;;27.50;14.93;;;;;;;8.45;100.00;99939.25;1499884;95;21139;-70
2022/05/25 03:04:07;;;;;;;25.57;14.97;;;;;;;8.50;100.00;99936.09;1430903;98;21124;-70
2022/05/25 03:06:34;;;;;;;25.37;14.07;;;;;;;8.54;100.00;99946.36;1476022;96;21110;-70
2022/05/25 03:09:01;;;;;;;25.43;13.80;;;;;;;8.56;100.00;99940.82;1465337;98;21157;-69
2022/05/25 03:11:29;;;;;;;27.90;14.10;;;;;;;8.58;100.00;99936.62;1476287;96;21568;-70
2022/05/25 03:13:56;;;;;;;29.97;15.23;;;;;;;8.60;100.00;99924.66;1444218;96;21121;-69
2022/05/25 03:16:23;;;;;;;27.17;15.53;;;;;;;8.61;100.00;99920.13;1530896;94;21041;-71
2022/05/25 03:18:53;;;;;;;29.63;15.20;;;;;;;8.62;100.00;99918.59;1543009;93;21112;-70
2022/05/25 03:21:20;;;;;;;27.50;16.00;;;;;;;8.64;100.00;99913.05;1543306;93;21092;-71
2022/05/25 03:23:47;;;;;;;31.00;16.00;;;;;;;8.66;100.00;99915.94;1560449;91;21571;-70
2022/05/25 03:26:15;;;;;;;27.03;15.87;;;;;;;8.68;100.00;99920.66;1607266;87;21172;-70
2022/05/25 03:28:42;;;;;;;30.07;16.07;;;;;;;8.72;100.00;99925.23;1661997;83;21124;-70
2022/05/25 03:31:09;;;;;;;33.10;17.30;;;;;;;8.78;100.00;99921.03;1702920;83;21539;-70
2022/05/25 03:33:39;;;;;;;28.70;17.42;;;;;;;8.84;100.00;99921.23;1703115;83;21021;-70
2022/05/25 03:36:07;;;;;;;32.73;17.33;;;;;;;8.94;100.00;99930.52;1721312;83;21006;-71
2022/05/25 03:38:34;;;;;;;33.70;17.17;;;;;;;9.06;100.00;99922.47;1721210;83;21516;-70
2022/05/25 03:41:01;;;;;;;39.77;18.63;;;;;;;9.22;100.00;99920.84;1703199;83;21054;-71
2022/05/25 03:43:34;;;;;;;83.25;22.58;;;;;;;9.40;100.00;99922.91;1702657;83;21062;-71
2022/05/25 03:46:01;;;;;;;65.65;20.20;;;;;;;9.60;100.00;99918.55;1661785;85;21036;-70
2022/05/25 03:48:29;;;;;;;46.25;18.00;;;;;;;9.82;100.00;99917.02;1683555;85;21581;-70
2022/05/25 03:50:56;;;;;;;26.87;14.35;;;;;;;10.05;100.00;99914.47;1683883;85;21082;-70
2022/05/25 03:53:23;;;;;;;30.02;15.18;;;;;;;10.27;100.00;99919.69;1661576;85;21099;-69
2022/05/25 03:55:50;;;;;;;28.47;14.90;;;;;;;10.47;100.00;99907.17;1661937;85;21040;-70
2022/05/25 03:58:17;;;;;;;26.42;12.75;;;;;;;10.69;100.00;99913.67;1683619;85;21048;-70
2022/05/25 04:00:46;;;;;;;26.48;12.90;;;;;;;10.89;100.00;99912.24;1660951;85;21076;-70
2022/05/25 04:03:15;;;;;;;25.10;12.50;;;;;;;11.09;100.00;99900.46;1683694;85;21136;-71
2022/05/25 04:05:42;;;;;;;24.72;10.75;;;;;;;11.32;100.00;99895.59;1683481;85;21072;-69
2022/05/25 04:08:10;;;;;;;21.68;10.25;;;;;;;11.52;100.00;99883.25;1660483;85;21067;-70
2022/05/25 04:10:37;;;;;;;20.43;9.48;;;;;;;11.73;100.00;99877.67;1660439;85;21541;-71
2022/05/25 04:13:05;;;;;;;17.07;8.90;;;;;;;11.95;100.00;99874.13;1660868;85;21489;-70
2022/05/25 04:15:32;;;;;;;15.93;7.80;;;;;;;12.20;100.00;99877.95;1674516;84;21050;-71
2022/05/25 04:17:59;;;;;;;16.00;7.33;;;;;;;12.47;100.00;99890.53;1675367;84;21082;-72
2022/05/25 04:20:28;;;;;;;18.77;6.87;;;;;;;12.78;100.00;99906.58;1652554;84;21043;-71
2022/05/25 04:22:55;;;;;;;12.60;6.03;;;;;;;13.09;100.00;99908.23;1676854;84;21123;-71
2022/05/25 04:25:24;;;;;;;15.32;6.20;;;;;;;13.38;100.00;99924.14;1654258;87;21104;-71
2022/05/25 04:27:53;;;;;;;15.88;5.60;;;;;;;13.65;100.00;99939.69;1654671;87;21939;-71
2022/05/25 04:30:27;;;;;;;11.60;5.00;;;;;;;13.95;100.00;99951.80;1654713;87;21499;-72
2022/05/25 04:32:54;;;;;;;14.50;5.05;;;;;;;14.21;100.00;99962.03;1610310;87;21636;-71
2022/05/25 04:35:21;;;;;;;9.28;4.92;;;;;;;14.43;100.00;99974.25;1632268;87;21041;-71
2022/05/25 04:37:49;;;;;;;8.73;4.58;;;;;;;14.65;100.00;99970.14;1654469;85;21056;-71
2022/05/25 04:40:23;;;;;;;10.08;5.03;;;;;;;14.89;100.00;99976.47;1631472;87;21104;-71
2022/05/25 04:42:50;;;;;;;10.38;4.90;;;;;;;15.13;100.00;99984.64;1628445;85;21025;-71
2022/05/25 04:45:19;;;;;;;10.58;4.78;;;;;;;15.57;100.00;99991.52;1693888;85;21068;-71
2022/05/25 04:47:47;;;;;;;9.70;4.60;;;;;;;15.57;100.00;99991.52;1694071;85;21068;-71
2022/05/25 04:50:17;;;;;;;9.30;4.28;;;;;;;15.78;100.00;99992.45;1664384;85;21059;-71
2022/05/25 04:52:43;;;;;;;7.40;4.08;;;;;;;16.00;100.00;99998.55;1664580;85;21069;-71
2022/05/25 04:57:19;;;;;;;9.73;4.45;;;;;;;16.23;100.00;100001.42;1664322;85;21042;-71
2022/05/25 04:57:40;;;;;;;10.08;4.42;;;;;;;16.44;100.00;100008.03;1664797;84;21029;-71
2022/05/25 05:00:08;;;;;;;9.28;4.22;;;;;;;16.60;100.00;100010.86;1664690;84;21049;-71
2022/05/25 05:02:35;;;;;;;14.78;7.55;;;;;;;16.83;100.00;100016.40;1694248;85;21478;-72
2022/05/25 05:05:12;;;;;;;625.12;434.75;;;;;;;17.05;100.00;100014.27;1664540;85;21534;-74
2022/05/25 05:07:39;;;;;;;40.58;25.85;;;;;;;17.29;100.00;100017.37;1643309;87;21023;-73
2022/05/25 05:10:08;;;;;;;41.42;33.75;;;;;;;17.53;100.00;100016.64;1643741;87;21599;-73
2022/05/25 05:12:36;;;;;;;14.93;7.70;;;;;;;17.74;100.00;100018.73;1643588;87;21591;-73
2022/05/25 05:15:05;;;;;;;27.65;20.12;;;;;;;17.95;100.00;100022.52;1672773;85;21075;-73
2022/05/25 05:17:32;;;;;;;34.85;24.50;;;;;;;18.15;100.00;100026.52;1686059;85;21107;-71
2022/05/25 05:20:09;;;;;;;10.85;5.62;;;;;;;18.29;100.00;100024.53;1682484;85;21048;-72
2022/05/25 05:22:38;;;;;;;10.32;4.85;;;;;;;18.35;100.00;100027.73;1629589;87;21090;-71
2022/05/25 05:25:07;;;;;;;18.05;10.53;;;;;;;18.41;100.00;100028.73;1636295;88;21088;-71
2022/05/25 05:27:34;;;;;;;11.15;6.65;;;;;;;18.55;100.00;100032.20;1606876;88;21071;-70
2022/05/25 05:30:04;;;;;;;9.48;4.28;;;;;;;18.78;100.00;100032.94;1606610;89;21119;-71
2022/05/25 05:32:31;;;;;;;7.37;3.90;;;;;;;19.08;100.00;100025.41;1585584;89;21139;-71
2022/05/25 05:34:59;;;;;;;10.85;6.25;;;;;;;19.41;100.00;100029.69;1586178;89;21645;-71
2022/05/25 05:37:36;;;;;;;7.65;4.28;;;;;;;19.66;100.00;100035.89;1587873;86;21131;-69
2022/05/25 05:40:06;;;;;;;62.95;46.90;;;;;;;19.89;100.00;100042.05;1651103;85;21064;-72
2022/05/25 05:42:34;;;;;;;10.50;5.17;;;;;;;20.05;100.00;100040.55;1631396;87;20976;-70
2022/05/25 05:45:05;;;;;;;6.80;4.50;;;;;;;20.22;100.00;100042.62;1655970;86;21011;-72
2022/05/25 05:47:36;;;;;;;16.85;10.18;;;;;;;20.34;98.37;100037.17;1655573;85;21087;-71
2022/05/25 05:50:07;;;;;;;7.60;3.77;;;;;;;20.56;97.10;100037.46;1660183;85;21074;-72
2022/05/25 05:52:35;;;;;;;4.62;3.15;;;;;;;20.70;93.48;100040.83;1665411;85;21055;-72
2022/05/25 05:55:03;;;;;;;9.23;3.20;;;;;;;20.83;93.38;100041.44;1683252;85;21122;-71
2022/05/25 05:57:33;;;;;;;9.65;3.33;;;;;;;21.08;91.99;100038.98;1683291;85;21087;-71
2022/05/25 06:00:00;;;;;;;13.22;2.95;;;;;;;21.30;88.79;100039.20;1665961;85;21531;-69
2022/05/25 06:02:27;;;;;;;7.20;3.22;;;;;;;21.42;84.84;100049.64;1665311;85;21059;-70
2022/05/25 06:04:54;;;;;;;9.55;2.87;;;;;;;21.50;82.96;100047.63;1665525;85;21083;-72
2022/05/25 06:07:21;;;;;;;3.27;2.52;;;;;;;21.66;82.21;100054.28;1665350;85;21115;-71
2022/05/25 06:09:49;;;;;;;9.08;2.95;;;;;;;21.84;80.42;100052.70;1640490;86;21160;-72
2022/05/25 06:12:17;;;;;;;4.60;2.60;;;;;;;22.06;77.66;100053.39;1645370;87;21047;-71
2022/05/25 06:14:44;;;;;;;5.33;2.15;;;;;;;22.24;74.88;100058.70;1645231;87;21613;-72
2022/05/25 06:19:56;;;;;;;5.50;2.75;;;;;;;22.53;68.29;100058.67;1627750;87;21043;-73
2022/05/25 06:22:23;;;;;;;8.80;2.70;;;;;;;22.67;65.32;100053.67;1647841;85;21048;-72
2022/05/25 06:24:52;;;;;;;5.15;2.05;;;;;;;22.70;64.81;100052.62;1688289;85;21094;-71
2022/05/25 06:27:21;;;;;;;7.00;2.30;;;;;;;22.85;63.71;100058.91;1685734;85;21113;-72
2022/05/25 06:29:49;;;;;;;10.38;2.70;;;;;;;22.98;62.07;100061.85;1685653;85;21570;-73
2022/05/25 06:32:19;;;;;;;7.30;2.77;;;;;;;23.06;60.62;100066.98;1688369;85;21061;-72
2022/05/25 06:34:50;;;;;;;7.95;2.55;;;;;;;23.28;60.11;100058.76;1688247;85;21125;-70
2022/05/25 06:37:23;;;;;;;5.85;2.50;;;;;;;23.56;59.17;100063.80;1685282;85;21062;-72
2022/05/25 06:39:50;;;;;;;11.93;3.35;;;;;;;23.81;58.23;100067.99;1685921;85;21535;-72
2022/05/25 06:42:17;;;;;;;3.83;2.20;;;;;;;24.10;56.00;100068.61;1685816;85;21007;-71
2022/05/25 06:44:45;;;;;;;7.70;2.70;;;;;;;24.23;52.70;100070.94;1682436;85;21615;-71
2022/05/25 06:47:16;;;;;;;8.65;2.90;;;;;;;24.33;52.45;100071.59;1688326;85;21098;-72
2022/05/25 06:49:43;;;;;;;4.70;2.35;;;;;;;24.53;52.33;100079.80;1688228;85;21546;-72
2022/05/25 06:52:11;;;;;;;7.80;2.67;;;;;;;24.58;48.36;100071.02;1687277;85;21090;-72
2022/05/25 06:54:40;;;;;;;2.87;2.30;;;;;;;24.52;49.30;100074.80;1685420;85;21540;-70
2022/05/25 06:57:08;;;;;;;6.03;2.17;;;;;;;24.67;48.37;100074.14;1687534;85;21079;-72
2022/05/25 06:59:36;;;;;;;2.58;2.17;;;;;;;24.61;45.72;100084.85;1683974;85;21027;-72
2022/05/25 07:02:04;;;;;;;10.13;2.55;;;;;;;24.67;45.50;100082.44;1684850;85;21062;-73
2022/05/25 07:04:32;;;;;;;7.08;2.15;;;;;;;24.69;45.39;100077.47;1687799;85;21090;-71
2022/05/25 07:07:01;;;;;;;9.78;3.85;;;;;;;24.77;45.90;100083.05;1693036;85;21062;-72
2022/05/25 07:09:30;;;;;;;10.95;3.72;;;;;;;24.99;45.58;100079.62;1678590;85;21078;-72
2022/05/25 07:11:58;;;;;;;8.78;3.17;;;;;;;25.32;46.23;100079.58;1683014;84;21063;-73
2022/05/25 07:14:26;;;;;;;5.30;2.50;;;;;;;25.56;46.81;100079.44;1701725;84;21023;-71
2022/05/25 07:16:55;;;;;;;4.20;2.00;;;;;;;25.76;45.52;100082.86;1702603;84;21102;-69
2022/05/25 07:19:21;;;;;;;6.60;2.45;;;;;;;25.90;43.01;100080.95;1729801;82;21042;-69
2022/05/25 07:21:49;;;;;;;5.95;2.45;;;;;;;25.83;41.56;100075.66;1730400;82;21042;-72
2022/05/25 07:24:16;;;;;;;6.03;2.00;;;;;;;25.65;41.15;100070.63;1740409;82;21583;-73
2022/05/25 07:26:43;;;;;;;4.47;2.15;;;;;;;25.62;42.75;100080.84;1737713;82;21066;-73
2022/05/25 07:29:12;;;;;;;5.47;2.42;;;;;;;25.78;42.71;100070.10;1738274;82;20999;-73
2022/05/25 07:31:55;;;;;;;5.62;2.67;;;;;;;25.88;41.16;100075.68;1738459;82;21043;-72
2022/05/25 07:34:27;;;;;;;2.75;2.20;;;;;;;26.00;40.00;100076.86;1711902;82;21066;-72
2022/05/25 07:36:58;;;;;;;3.75;2.10;;;;;;;26.06;39.50;100079.09;1718594;83;21026;-72
2022/05/25 07:39:28;;;;;;;3.15;2.05;;;;;;;25.94;37.54;100079.33;1694240;83;21580;-72
2022/05/25 07:41:56;;;;;;;1.90;1.80;;;;;;;25.76;38.26;100084.77;1692732;83;21554;-73
2022/05/25 07:44:30;;;;;;;5.62;2.35;;;;;;;25.71;38.91;100084.22;1693610;83;21504;-72
2022/05/25 07:46:58;;;;;;;6.53;2.50;;;;;;;25.82;38.96;100082.88;1606241;88;21103;-73
2022/05/25 07:49:26;;;;;;;4.35;2.33;;;;;;;25.99;39.72;100086.83;1605239;88;21083;-71
2022/05/25 07:51:53;;;;;;;2.52;2.33;;;;;;;26.26;39.20;100090.23;1626902;88;21079;-72
2022/05/25 07:54:20;;;;;;;4.35;2.60;;;;;;;26.44;38.32;100090.81;1627637;88;21094;-72
2022/05/25 07:56:48;;;;;;;11.88;7.55;;;;;;;26.46;37.93;100088.59;1605263;88;21584;-71
2022/05/25 07:59:15;;;;;;;33.05;22.55;;;;;;;26.31;38.38;100091.63;1627292;88;21064;-71
2022/05/25 08:07:27;;;;;;;15.20;3.85;;;;;;;26.90;38.74;100090.86;1534078;92;21012;-73
2022/05/25 08:10:09;;;;;;;5.83;2.65;;;;;;;27.28;38.88;100094.15;1553221;92;21580;-73
2022/05/25 08:12:37;;;;;;;20.40;4.35;;;;;;;27.63;38.72;100088.22;1533780;92;21028;-74
2022/05/25 08:15:05;;;;;;;13.05;3.08;;;;;;;27.87;36.79;100086.16;1529002;93;21079;-73
2022/05/25 08:17:33;;;;;;;4.05;2.62;;;;;;;27.92;36.68;100091.73;1526947;93;21641;-73
2022/05/25 08:20:00;;;;;;;8.08;2.75;;;;;;;27.75;36.31;100098.45;1545936;93;21643;-73
2022/05/25 08:22:27;;;;;;;9.65;5.12;;;;;;;27.37;35.87;100104.13;1548594;91;21062;-74
2022/05/25 08:24:54;;;;;;;8.98;3.00;;;;;;;26.67;35.75;100106.94;1522164;92;21103;-74
2022/05/25 08:27:21;;;;;;;22.05;3.80;;;;;;;26.21;37.25;100105.46;1520368;93;21090;-75
2022/05/25 08:29:47;;;;;;;5.87;2.75;;;;;;;26.14;38.17;100109.05;1562097;90;21579;-73
2022/05/25 08:32:15;;;;;;;2.72;2.22;;;;;;;26.28;38.96;100108.80;1563906;92;21600;-73
2022/05/25 08:34:42;;;;;;;4.92;2.27;;;;;;;26.32;38.65;100108.52;1596989;90;21110;-73
2022/05/25 08:37:11;;;;;;;8.35;3.05;;;;;;;25.91;37.89;100111.16;1573665;88;21080;-73
2022/05/25 08:39:41;;;;;;;9.73;5.83;;;;;;;25.41;38.42;100115.36;1656542;86;21531;-74
2022/05/25 08:42:14;;;;;;;13.38;3.67;;;;;;;24.88;38.80;100115.23;1630434;86;21624;-74
2022/05/25 08:44:43;;;;;;;2.92;1.98;;;;;;;24.79;38.99;100119.59;1652572;87;21053;-73
2022/05/25 08:47:12;;;;;;;4.62;2.10;;;;;;;25.07;38.71;100121.72;1653593;87;21073;-73
2022/05/25 08:49:42;;;;;;;10.93;2.87;;;;;;;25.19;38.36;100115.45;1654225;87;21049;-74
2022/05/25 08:52:23;;;;;;;4.78;2.17;;;;;;;24.94;37.66;100123.84;1664950;85;21016;-73
2022/05/25 08:54:50;;;;;;;5.50;2.65;;;;;;;24.51;38.08;100121.52;1701956;84;21532;-74
2022/05/25 08:57:31;;;;;;;8.70;2.60;;;;;;;24.14;38.96;100128.31;1674863;84;21122;-75
2022/05/25 09:00:13;;;;;;;6.72;2.12;;;;;;;23.86;39.74;100128.80;1700612;84;21070;-73
2022/05/25 09:03:22;;;;;;;5.15;2.25;;;;;;;23.92;41.40;100119.50;1699967;84;21622;-74
2022/05/25 09:06:14;;;;;;;2.60;2.00;;;;;;;24.35;42.59;100119.14;1700980;84;20970;-73
2022/05/25 09:08:46;;;;;;;5.80;2.58;;;;;;;24.98;42.27;100113.08;1676883;84;21049;-72
2022/05/25 09:11:18;;;;;;;5.70;2.50;;;;;;;25.73;42.17;100099.19;1677584;84;21069;-73
2022/05/25 09:13:59;;;;;;;4.62;2.35;;;;;;;26.44;42.09;100106.89;1636615;87;21384;-74
2022/05/25 09:16:28;;;;;;;3.92;2.58;;;;;;;27.13;40.36;100099.16;1605880;89;21191;-72
2022/05/25 09:19:12;;;;;;;12.35;6.60;;;;;;;27.58;38.26;100102.12;1584589;89;21014;-73
2022/05/25 09:21:47;;;;;;;7.47;3.75;;;;;;;27.61;37.38;100103.77;1605960;89;21042;-72
2022/05/25 09:24:18;;;;;;;4.33;3.25;;;;;;;27.72;37.71;100105.95;1606130;89;21054;-72
2022/05/25 09:26:45;;;;;;;8.55;3.83;;;;;;;27.68;35.69;100109.60;1583192;89;21719;-71
2022/05/25 09:29:12;;;;;;;6.72;3.60;;;;;;;27.33;35.92;100112.18;1604836;89;21547;-74
2022/05/25 09:31:48;;;;;;;5.15;2.98;;;;;;;27.00;35.55;100114.97;1605175;89;21082;-72
2022/05/25 09:34:32;;;;;;;4.50;2.90;;;;;;;26.63;35.04;100113.30;1534780;93;21097;-73
2022/05/25 09:37:09;;;;;;;4.45;2.90;;;;;;;26.52;36.02;100117.98;1487282;96;21129;-73
2022/05/25 09:39:42;;;;;;;7.30;3.58;;;;;;;26.49;34.83;100119.94;1460416;97;21161;-73
2022/05/25 09:42:16;;;;;;;6.28;3.35;;;;;;;26.74;35.79;100114.99;1417407;98;21145;-74
2022/05/25 09:44:52;;;;;;;6.33;3.22;;;;;;;27.22;35.99;100113.30;1421804;101;21174;-74
2022/05/25 09:47:25;;;;;;;17.48;10.93;;;;;;;27.38;35.49;100114.95;1417138;101;21109;-72
2022/05/25 09:49:53;;;;;;;9.13;4.33;;;;;;;27.26;35.38;100119.38;1424433;101;21184;-71
2022/05/25 09:52:25;;;;;;;15.95;5.05;;;;;;;27.02;35.09;100119.15;1425970;100;21103;-72
2022/05/25 09:55:08;;;;;;;3.00;2.70;;;;;;;26.82;34.56;100128.29;1422730;100;21153;-73
2022/05/25 09:57:40;;;;;;;3.00;2.47;;;;;;;26.88;35.59;100114.71;1441268;99;21065;-73
2022/05/25 10:00:12;;;;;;;7.77;3.30;;;;;;;27.44;36.83;100112.42;1420200;101;21240;-72
2022/05/25 10:02:48;;;;;;;3.75;3.00;;;;;;;28.06;35.38;100113.61;1438740;99;21117;-72
2022/05/25 10:05:23;;;;;;;16.60;4.00;;;;;;;28.59;33.45;100106.08;1441669;99;21657;-73
2022/05/25 10:08:11;;;;;;;6.10;3.37;;;;;;;28.76;33.14;100112.06;1441958;99;21078;-72
2022/05/25 10:10:55;;;;;;;4.47;3.40;;;;;;;29.00;31.54;100107.69;1444207;98;21094;-73
2022/05/25 10:13:25;;;;;;;8.63;3.55;;;;;;;28.60;30.62;100107.75;1428569;100;21184;-72
2022/05/25 10:15:52;;;;;;;3.75;3.10;;;;;;;28.37;30.86;100110.66;1428123;99;21625;-70
2022/05/25 10:18:42;;;;;;;7.83;3.17;;;;;;;28.49;30.33;100112.53;1412050;100;21101;-72
2022/05/25 10:21:30;;;;;;;7.95;3.20;;;;;;;28.39;28.93;100109.24;1429337;98;21141;-73
2022/05/25 10:23:57;;;;;;;13.32;4.20;;;;;;;27.89;29.10;100111.17;1450048;98;21152;-72
2022/05/25 10:26:35;;;;;;;5.92;3.40;;;;;;;27.13;28.98;100105.23;1446334;99;21066;-73
2022/05/25 10:29:12;;;;;;;6.28;3.58;;;;;;;26.46;29.16;100110.78;1424491;100;21186;-71
2022/05/25 10:37:39;;;;;;;3.55;2.65;;;;;;;26.67;30.39;100096.41;1380532;103;20146;-73
2022/05/25 10:40:08;;;;;;;5.95;3.12;;;;;;;26.78;30.21;100100.84;1379528;104;21169;-73
2022/05/25 10:42:45;;;;;;;8.80;5.42;;;;;;;27.03;29.62;100094.44;1367664;104;21141;-72
2022/05/25 10:45:36;;;;;;;13.53;6.10;;;;;;;27.24;30.35;100095.23;1370693;104;21172;-71
2022/05/25 10:48:29;;;;;;;12.55;3.20;;;;;;;27.76;31.02;100087.59;1346200;105;21342;-71
2022/05/25 10:51:03;;;;;;;6.03;2.90;;;;;;;28.07;28.56;100100.56;1345849;106;21609;-71
2022/05/25 10:54:44;;;;;;;5.25;2.62;;;;;;;27.98;29.06;100098.37;1346431;106;21124;-72
2022/05/25 10:56:34;;;;;;;;;;;;;;;28.18;28.83;100091.86;1346941;105;21247;-71
2022/05/25 10:59:12;;;;;;;3.95;2.42;;;;;;;28.48;28.13;100090.56;1328237;107;20158;-71
2022/05/25 11:02:17;;;;;;;18.85;4.95;;;;;;;28.68;28.21;100093.20;1356023;103;21131;-72
2022/05/25 11:05:15;;;;;;;5.15;3.05;;;;;;;28.43;26.75;100089.20;1383192;104;21652;-71
2022/05/25 11:07:43;;;;;;;9.60;3.12;;;;;;;28.16;27.79;100076.59;1427184;100;21196;-70
2022/05/25 11:10:37;;;;;;;4.95;2.22;;;;;;;28.38;27.73;100074.77;1433902;97;21033;-70
2022/05/25 11:13:31;;;;;;;6.90;3.05;;;;;;;28.43;27.82;100076.12;1468844;97;21135;-70
2022/05/25 11:16:19;;;;;;;4.60;2.60;;;;;;;28.45;26.89;100072.48;1457467;98;21170;-70
2022/05/25 11:19:01;;;;;;;4.40;2.80;;;;;;;27.99;26.00;100075.57;1428627;100;22363;-72
2022/05/25 11:21:40;;;;;;;3.77;3.08;;;;;;;27.66;27.42;100072.38;1466986;97;21144;-70
2022/05/25 11:24:24;;;;;;;9.63;3.83;;;;;;;27.75;27.87;100077.61;1484334;96;21219;-72
2022/05/25 11:27:16;;;;;;;9.38;4.22;;;;;;;28.02;29.05;100081.39;1450803;99;21707;-72
2022/05/25 11:30:01;;;;;;;16.95;11.45;;;;;;;28.47;28.24;100084.72;1517139;93;21152;-72
2022/05/25 11:32:56;;;;;;;6.05;4.12;;;;;;;28.61;27.78;100097.44;1483388;96;21108;-71
2022/05/25 11:36:02;;;;;;;6.80;3.77;;;;;;;28.53;26.47;100091.35;1473131;97;21588;-72
2022/05/25 11:39:03;;;;;;;13.88;4.33;;;;;;;28.48;26.97;100086.39;1509900;94;21095;-72
2022/05/25 11:42:03;;;;;;;8.75;4.22;;;;;;;28.52;27.43;100079.94;1504137;95;21152;-71
2022/05/25 11:44:57;;;;;;;7.92;4.05;;;;;;;28.58;27.49;100076.62;1536543;91;21080;-73
2022/05/25 11:47:38;;;;;;;6.15;3.72;;;;;;;28.89;27.75;100085.51;1569324;91;21584;-70
2022/05/25 11:50:38;;;;;;;6.72;3.87;;;;;;;29.24;27.54;100078.54;1565399;92;21098;-71
2022/05/25 11:53:28;;;;;;;10.28;3.50;;;;;;;29.35;27.23;100073.93;1585852;90;21113;-71
2022/05/25 11:56:22;;;;;;;6.95;3.15;;;;;;;29.39;27.81;100074.17;1563703;91;21141;-72
2022/05/25 11:59:30;;;;;;;7.53;3.50;;;;;;;29.29;26.62;100084.87;1491794;96;21194;-74
2022/05/25 12:02:50;;;;;;;10.10;3.50;;;;;;;29.15;26.02;100076.39;1458211;97;21092;-73
2022/05/25 12:05:29;;;;;;;5.05;2.95;;;;;;;28.70;26.04;100076.22;1537902;92;21094;-73
2022/05/25 12:08:04;;;;;;;4.95;3.47;;;;;;;28.23;25.84;100079.89;1504248;94;21034;-73